sensor_id;sensor_type;location;lat;lon;timestamp;pressure;altitude;pressure_sealevel;temperature;humidity
27984;BME280;15317;50.360;8.726;2022-08-19T00:01:30;99103.50;;;20.36;84.28
27984;BME280;15317;50.360;8.726;2022-08-19T00:05:32;99092.25;;;20.37;84.40
27984;BME280;15317;50.360;8.726;2022-08-19T00:09:34;99096.81;;;20.43;83.94
27984;BME280;15317;50.360;8.726;2022-08-19T00:13:36;99089.38;;;20.44;83.90
27984;BME280;15317;50.360;8.726;2022-08-19T00:17:42;99090.00;;;20.46;84.12
27984;BME280;15317;50.360;8.726;2022-08-19T00:21:44;99094.47;;;20.47;84.37
27984;BME280;15317;50.360;8.726;2022-08-19T00:25:46;99089.53;;;20.49;83.73
27984;BME280;15317;50.360;8.726;2022-08-19T00:29:48;99086.75;;;20.49;84.57
27984;BME280;15317;50.360;8.726;2022-08-19T00:33:52;99080.19;;;20.50;83.90
27984;BME280;15317;50.360;8.726;2022-08-19T00:37:55;99074.66;;;20.50;84.14
27984;BME280;15317;50.360;8.726;2022-08-19T00:41:57;99073.59;;;20.51;83.77
27984;BME280;15317;50.360;8.726;2022-08-19T00:45:59;99070.81;;;20.51;84.00
27984;BME280;15317;50.360;8.726;2022-08-19T00:50:05;99070.34;;;20.54;83.78
27984;BME280;15317;50.360;8.726;2022-08-19T00:54:07;99063.75;;;20.55;83.53
27984;BME280;15317;50.360;8.726;2022-08-19T00:58:12;99063.75;;;20.55;83.98
27984;BME280;15317;50.360;8.726;2022-08-19T01:02:16;99068.50;;;20.66;83.01
27984;BME280;15317;50.360;8.726;2022-08-19T01:06:19;99057.44;;;20.66;82.60
27984;BME280;15317;50.360;8.726;2022-08-19T01:10:24;99041.34;;;20.63;82.86
27984;BME280;15317;50.360;8.726;2022-08-19T01:14:27;99044.72;;;20.65;82.52
27984;BME280;15317;50.360;8.726;2022-08-19T01:18:30;99040.28;;;20.64;83.18
27984;BME280;15317;50.360;8.726;2022-08-19T01:22:37;99037.97;;;20.61;83.42
27984;BME280;15317;50.360;8.726;2022-08-19T01:26:43;99037.28;;;20.66;83.25
27984;BME280;15317;50.360;8.726;2022-08-19T01:30:46;99037.53;;;20.64;83.62
27984;BME280;15317;50.360;8.726;2022-08-19T01:34:49;99028.88;;;20.61;84.25
27984;BME280;15317;50.360;8.726;2022-08-19T01:38:52;99027.19;;;20.60;84.07
27984;BME280;15317;50.360;8.726;2022-08-19T01:42:55;99020.22;;;20.57;84.33
27984;BME280;15317;50.360;8.726;2022-08-19T01:46:57;99027.44;;;20.58;84.37
27984;BME280;15317;50.360;8.726;2022-08-19T01:50:59;99026.81;;;20.56;84.72
27984;BME280;15317;50.360;8.726;2022-08-19T01:55:03;99020.69;;;20.54;84.80
27984;BME280;15317;50.360;8.726;2022-08-19T01:59:10;99030.53;;;20.50;85.52
27984;BME280;15317;50.360;8.726;2022-08-19T02:03:14;99033.88;;;20.52;85.74
27984;BME280;15317;50.360;8.726;2022-08-19T02:07:19;99027.31;;;20.53;85.89
27984;BME280;15317;50.360;8.726;2022-08-19T02:11:27;99027.25;;;20.41;86.73
27984;BME280;15317;50.360;8.726;2022-08-19T02:15:29;99035.78;;;20.40;87.24
27984;BME280;15317;50.360;8.726;2022-08-19T02:19:31;99032.84;;;20.35;87.75
27984;BME280;15317;50.360;8.726;2022-08-19T02:23:33;99027.63;;;20.27;88.64
27984;BME280;15317;50.360;8.726;2022-08-19T02:27:37;99030.97;;;20.17;89.55
27984;BME280;15317;50.360;8.726;2022-08-19T02:31:39;99035.63;;;20.17;89.25
27984;BME280;15317;50.360;8.726;2022-08-19T02:35:42;99047.59;;;20.10;90.34
27984;BME280;15317;50.360;8.726;2022-08-19T02:39:44;99055.09;;;20.03;91.16
27984;BME280;15317;50.360;8.726;2022-08-19T02:43:48;99054.47;;;20.01;91.21
27984;BME280;15317;50.360;8.726;2022-08-19T02:47:50;99060.41;;;20.05;91.13
27984;BME280;15317;50.360;8.726;2022-08-19T02:51:52;99066.97;;;20.04;91.66
27984;BME280;15317;50.360;8.726;2022-08-19T02:55:55;99059.84;;;19.96;92.31
27984;BME280;15317;50.360;8.726;2022-08-19T02:59:58;99059.63;;;19.98;92.76
27984;BME280;15317;50.360;8.726;2022-08-19T03:04:04;99055.63;;;19.94;92.63
27984;BME280;15317;50.360;8.726;2022-08-19T03:08:07;99064.16;;;19.92;92.97
27984;BME280;15317;50.360;8.726;2022-08-19T03:12:11;99069.97;;;19.84;93.44
27984;BME280;15317;50.360;8.726;2022-08-19T03:16:15;99067.03;;;19.79;93.52
27984;BME280;15317;50.360;8.726;2022-08-19T03:20:17;99063.28;;;19.73;94.32
27984;BME280;15317;50.360;8.726;2022-08-19T03:24:20;99064.22;;;19.67;94.78
27984;BME280;15317;50.360;8.726;2022-08-19T03:28:22;99062.44;;;19.73;94.74
27984;BME280;15317;50.360;8.726;2022-08-19T03:32:25;99063.00;;;19.63;94.92
27984;BME280;15317;50.360;8.726;2022-08-19T03:36:27;99065.81;;;19.57;96.16
27984;BME280;15317;50.360;8.726;2022-08-19T03:40:29;99074.53;;;19.54;96.74
27984;BME280;15317;50.360;8.726;2022-08-19T03:44:32;99084.94;;;19.52;96.90
27984;BME280;15317;50.360;8.726;2022-08-19T03:48:37;99088.16;;;19.49;96.59
27984;BME280;15317;50.360;8.726;2022-08-19T03:52:39;99078.00;;;19.43;97.04
27984;BME280;15317;50.360;8.726;2022-08-19T03:56:43;99080.63;;;19.38;97.21
27984;BME280;15317;50.360;8.726;2022-08-19T04:00:45;99081.50;;;19.31;97.70
27984;BME280;15317;50.360;8.726;2022-08-19T04:04:49;99084.09;;;19.26;98.01
27984;BME280;15317;50.360;8.726;2022-08-19T04:08:55;99079.91;;;19.24;98.24
27984;BME280;15317;50.360;8.726;2022-08-19T04:12:58;99077.13;;;19.24;98.21
27984;BME280;15317;50.360;8.726;2022-08-19T04:17:02;99085.22;;;19.19;98.45
27984;BME280;15317;50.360;8.726;2022-08-19T04:21:07;99093.41;;;19.25;98.12
27984;BME280;15317;50.360;8.726;2022-08-19T04:25:10;99092.41;;;19.20;98.67
27984;BME280;15317;50.360;8.726;2022-08-19T04:29:15;99083.78;;;19.16;98.95
27984;BME280;15317;50.360;8.726;2022-08-19T04:33:19;99083.31;;;19.19;99.20
27984;BME280;15317;50.360;8.726;2022-08-19T04:37:22;99083.94;;;19.21;99.15
27984;BME280;15317;50.360;8.726;2022-08-19T04:41:25;99097.41;;;19.29;98.91
27984;BME280;15317;50.360;8.726;2022-08-19T04:45:45;99089.94;;;19.37;98.90
27984;BME280;15317;50.360;8.726;2022-08-19T04:49:48;99094.13;;;19.39;98.71
27984;BME280;15317;50.360;8.726;2022-08-19T04:53:51;99102.81;;;19.43;98.65
27984;BME280;15317;50.360;8.726;2022-08-19T04:57:54;99105.97;;;19.46;98.36
27984;BME280;15317;50.360;8.726;2022-08-19T05:01:58;99103.00;;;19.48;98.20
27984;BME280;15317;50.360;8.726;2022-08-19T05:06:04;99102.56;;;19.51;98.28
27984;BME280;15317;50.360;8.726;2022-08-19T05:10:09;99104.41;;;19.57;98.16
27984;BME280;15317;50.360;8.726;2022-08-19T05:14:12;99106.88;;;19.65;97.71
27984;BME280;15317;50.360;8.726;2022-08-19T05:18:14;99100.44;;;19.71;97.16
27984;BME280;15317;50.360;8.726;2022-08-19T05:22:34;99102.66;;;19.81;97.08
27984;BME280;15317;50.360;8.726;2022-08-19T05:26:42;99099.06;;;19.98;95.21
27984;BME280;15317;50.360;8.726;2022-08-19T05:30:47;99105.28;;;20.12;94.64
27984;BME280;15317;50.360;8.726;2022-08-19T05:34:51;99113.91;;;20.34;92.83
27984;BME280;15317;50.360;8.726;2022-08-19T05:38:53;99116.34;;;20.60;91.38
27984;BME280;15317;50.360;8.726;2022-08-19T05:42:57;99111.44;;;21.04;89.66
27984;BME280;15317;50.360;8.726;2022-08-19T05:47:00;99125.44;;;21.44;85.57
27984;BME280;15317;50.360;8.726;2022-08-19T05:51:04;99133.03;;;21.72;83.84
27984;BME280;15317;50.360;8.726;2022-08-19T05:55:07;99138.94;;;22.10;81.26
27984;BME280;15317;50.360;8.726;2022-08-19T05:59:10;99134.00;;;22.52;79.55
27984;BME280;15317;50.360;8.726;2022-08-19T06:03:12;99140.91;;;22.50;78.46
27984;BME280;15317;50.360;8.726;2022-08-19T06:07:15;99139.44;;;22.87;77.57
27984;BME280;15317;50.360;8.726;2022-08-19T06:11:20;99141.59;;;23.13;74.20
27984;BME280;15317;50.360;8.726;2022-08-19T06:15:23;99126.16;;;23.34;72.92
27984;BME280;15317;50.360;8.726;2022-08-19T06:19:26;99137.25;;;23.34;71.57
27984;BME280;15317;50.360;8.726;2022-08-19T06:23:30;99150.06;;;23.52;71.39
27984;BME280;15317;50.360;8.726;2022-08-19T06:27:32;99151.50;;;23.71;69.85
27984;BME280;15317;50.360;8.726;2022-08-19T06:31:36;99154.94;;;23.61;70.58
27984;BME280;15317;50.360;8.726;2022-08-19T06:35:39;99173.19;;;23.74;69.63
27984;BME280;15317;50.360;8.726;2022-08-19T06:39:43;99177.72;;;23.80;68.80
27984;BME280;15317;50.360;8.726;2022-08-19T06:43:45;99165.91;;;24.07;67.89
27984;BME280;15317;50.360;8.726;2022-08-19T06:47:51;99165.97;;;24.12;66.86
27984;BME280;15317;50.360;8.726;2022-08-19T06:51:54;99180.94;;;24.11;66.64
27984;BME280;15317;50.360;8.726;2022-08-19T06:55:57;99190.81;;;24.01;67.93
27984;BME280;15317;50.360;8.726;2022-08-19T07:00:04;99189.59;;;24.14;66.63
27984;BME280;15317;50.360;8.726;2022-08-19T07:04:14;99180.03;;;24.22;65.85
27984;BME280;15317;50.360;8.726;2022-08-19T07:08:16;99200.84;;;24.41;65.00
27984;BME280;15317;50.360;8.726;2022-08-19T07:12:18;99212.16;;;24.56;64.97
27984;BME280;15317;50.360;8.726;2022-08-19T07:16:20;99209.44;;;24.61;64.67
27984;BME280;15317;50.360;8.726;2022-08-19T07:20:24;99197.63;;;24.93;62.77
27984;BME280;15317;50.360;8.726;2022-08-19T07:24:27;99193.81;;;24.99;63.12
27984;BME280;15317;50.360;8.726;2022-08-19T07:28:29;99200.00;;;25.33;61.57
27984;BME280;15317;50.360;8.726;2022-08-19T07:32:31;99212.31;;;25.37;60.57
27984;BME280;15317;50.360;8.726;2022-08-19T07:36:37;99216.56;;;24.96;61.92
27984;BME280;15317;50.360;8.726;2022-08-19T07:40:41;99212.38;;;25.20;61.38
27984;BME280;15317;50.360;8.726;2022-08-19T07:44:44;99207.88;;;25.41;59.38
27984;BME280;15317;50.360;8.726;2022-08-19T07:48:47;99205.34;;;25.39;58.86
27984;BME280;15317;50.360;8.726;2022-08-19T07:52:51;99205.78;;;25.26;58.92
27984;BME280;15317;50.360;8.726;2022-08-19T07:56:53;99218.59;;;25.27;58.35
27984;BME280;15317;50.360;8.726;2022-08-19T08:00:55;99207.03;;;25.13;58.68
27984;BME280;15317;50.360;8.726;2022-08-19T08:04:57;99222.38;;;25.16;59.13
27984;BME280;15317;50.360;8.726;2022-08-19T08:09:20;99222.22;;;25.06;59.15
27984;BME280;15317;50.360;8.726;2022-08-19T08:13:24;99224.13;;;25.00;60.54
27984;BME280;15317;50.360;8.726;2022-08-19T08:17:28;99236.44;;;24.88;61.24
27984;BME280;15317;50.360;8.726;2022-08-19T08:21:31;99234.84;;;24.92;60.58
27984;BME280;15317;50.360;8.726;2022-08-19T08:25:35;99221.84;;;24.75;61.68
27984;BME280;15317;50.360;8.726;2022-08-19T08:29:38;99225.19;;;25.21;59.75
27984;BME280;15317;50.360;8.726;2022-08-19T08:33:41;99222.59;;;25.36;60.55
27984;BME280;15317;50.360;8.726;2022-08-19T08:37:44;99228.31;;;25.78;58.08
27984;BME280;15317;50.360;8.726;2022-08-19T08:41:51;99233.34;;;26.18;58.20
27984;BME280;15317;50.360;8.726;2022-08-19T08:45:59;99238.09;;;25.86;56.35
27984;BME280;15317;50.360;8.726;2022-08-19T08:50:05;99226.97;;;25.86;56.51
27984;BME280;15317;50.360;8.726;2022-08-19T08:54:12;99237.19;;;26.12;55.52
27984;BME280;15317;50.360;8.726;2022-08-19T08:58:21;99245.25;;;26.46;54.68
27984;BME280;15317;50.360;8.726;2022-08-19T09:02:25;99248.84;;;26.09;54.96
27984;BME280;15317;50.360;8.726;2022-08-19T09:06:32;99244.56;;;26.28;55.43
27984;BME280;15317;50.360;8.726;2022-08-19T09:10:39;99247.44;;;26.39;54.80
27984;BME280;15317;50.360;8.726;2022-08-19T09:14:52;99240.81;;;25.81;57.03
27984;BME280;15317;50.360;8.726;2022-08-19T09:18:58;99223.84;;;25.77;57.42
27984;BME280;15317;50.360;8.726;2022-08-19T09:23:02;99232.25;;;26.19;56.14
27984;BME280;15317;50.360;8.726;2022-08-19T09:27:05;99220.81;;;26.58;54.83
27984;BME280;15317;50.360;8.726;2022-08-19T09:31:08;99217.28;;;26.78;52.01
27984;BME280;15317;50.360;8.726;2022-08-19T09:35:12;99215.25;;;26.63;52.28
27984;BME280;15317;50.360;8.726;2022-08-19T09:39:14;99204.97;;;26.68;52.94
27984;BME280;15317;50.360;8.726;2022-08-19T09:43:16;99215.16;;;26.43;52.96
27984;BME280;15317;50.360;8.726;2022-08-19T09:47:20;99209.75;;;26.26;53.98
27984;BME280;15317;50.360;8.726;2022-08-19T09:51:24;99211.13;;;26.70;51.42
27984;BME280;15317;50.360;8.726;2022-08-19T09:55:26;99211.06;;;27.28;50.75
27984;BME280;15317;50.360;8.726;2022-08-19T09:59:29;99200.22;;;27.51;48.47
27984;BME280;15317;50.360;8.726;2022-08-19T10:03:33;99198.59;;;28.01;48.06
27984;BME280;15317;50.360;8.726;2022-08-19T10:07:35;99206.06;;;27.35;49.08
27984;BME280;15317;50.360;8.726;2022-08-19T10:11:40;99205.19;;;27.14;49.12
27984;BME280;15317;50.360;8.726;2022-08-19T10:15:42;99196.00;;;27.24;48.23
27984;BME280;15317;50.360;8.726;2022-08-19T10:19:46;99194.34;;;27.38;47.76
27984;BME280;15317;50.360;8.726;2022-08-19T10:23:50;99199.44;;;27.71;nan
27984;BME280;15317;50.360;8.726;2022-08-19T10:27:52;99204.16;;;27.71;47.48
27984;BME280;15317;50.360;8.726;2022-08-19T10:31:55;99194.13;;;27.60;46.96
27984;BME280;15317;50.360;8.726;2022-08-19T10:36:00;99192.44;;;27.94;46.77
27984;BME280;15317;50.360;8.726;2022-08-19T10:40:04;99194.38;;;28.14;46.79
27984;BME280;15317;50.360;8.726;2022-08-19T10:44:09;99194.31;;;28.54;44.86
27984;BME280;15317;50.360;8.726;2022-08-19T10:48:12;99199.31;;;28.62;45.40
27984;BME280;15317;50.360;8.726;2022-08-19T10:52:15;99185.94;;;28.54;44.88
27984;BME280;15317;50.360;8.726;2022-08-19T10:56:36;99192.69;;;28.43;44.50
27984;BME280;15317;50.360;8.726;2022-08-19T11:00:55;99183.75;;;28.36;44.10
27984;BME280;15317;50.360;8.726;2022-08-19T11:04:57;99178.44;;;28.40;44.98
27984;BME280;15317;50.360;8.726;2022-08-19T11:09:02;99186.25;;;28.48;44.73
27984;BME280;15317;50.360;8.726;2022-08-19T11:13:05;99183.66;;;28.72;43.86
27984;BME280;15317;50.360;8.726;2022-08-19T11:17:07;99180.22;;;28.95;43.62
27984;BME280;15317;50.360;8.726;2022-08-19T11:21:12;99161.28;;;28.77;42.57
27984;BME280;15317;50.360;8.726;2022-08-19T11:25:16;99163.09;;;28.37;44.42
27984;BME280;15317;50.360;8.726;2022-08-19T11:29:20;99133.56;;;27.85;46.65
27984;BME280;15317;50.360;8.726;2022-08-19T11:33:26;99137.94;;;28.32;44.89
27984;BME280;15317;50.360;8.726;2022-08-19T11:37:28;99146.88;;;28.44;45.52
27984;BME280;15317;50.360;8.726;2022-08-19T11:41:31;99129.56;;;28.32;43.44
27984;BME280;15317;50.360;8.726;2022-08-19T11:45:34;99119.34;;;27.87;44.27
27984;BME280;15317;50.360;8.726;2022-08-19T11:49:36;99130.19;;;27.94;44.61
27984;BME280;15317;50.360;8.726;2022-08-19T11:53:38;99124.31;;;28.10;43.75
27984;BME280;15317;50.360;8.726;2022-08-19T11:57:42;99126.56;;;28.08;44.21
27984;BME280;15317;50.360;8.726;2022-08-19T12:01:44;99122.34;;;28.31;43.74
27984;BME280;15317;50.360;8.726;2022-08-19T12:05:47;99117.66;;;27.86;43.78
27984;BME280;15317;50.360;8.726;2022-08-19T12:09:49;99121.03;;;27.83;42.97
27984;BME280;15317;50.360;8.726;2022-08-19T12:13:53;99117.41;;;27.62;44.18
27984;BME280;15317;50.360;8.726;2022-08-19T12:17:56;99114.91;;;27.76;44.04
27984;BME280;15317;50.360;8.726;2022-08-19T12:21:59;99108.44;;;27.90;43.39
27984;BME280;15317;50.360;8.726;2022-08-19T12:26:02;99114.81;;;28.21;43.50
27984;BME280;15317;50.360;8.726;2022-08-19T12:30:08;99119.00;;;28.19;42.66
27984;BME280;15317;50.360;8.726;2022-08-19T12:34:11;99107.00;;;27.98;43.09
27984;BME280;15317;50.360;8.726;2022-08-19T12:38:13;99103.16;;;27.79;43.30
27984;BME280;15317;50.360;8.726;2022-08-19T12:42:16;99101.50;;;27.73;44.11
27984;BME280;15317;50.360;8.726;2022-08-19T12:46:20;99104.78;;;28.15;41.10
27984;BME280;15317;50.360;8.726;2022-08-19T12:50:22;99097.06;;;28.61;39.52
27984;BME280;15317;50.360;8.726;2022-08-19T12:54:24;99096.50;;;28.64;39.26
27984;BME280;15317;50.360;8.726;2022-08-19T12:58:26;99094.91;;;28.43;40.18
27984;BME280;15317;50.360;8.726;2022-08-19T13:02:30;99101.09;;;28.35;40.66
27984;BME280;15317;50.360;8.726;2022-08-19T13:06:35;99091.63;;;28.21;41.09
27984;BME280;15317;50.360;8.726;2022-08-19T13:10:37;99089.97;;;28.15;41.04
27984;BME280;15317;50.360;8.726;2022-08-19T13:14:40;99093.94;;;27.83;42.17
27984;BME280;15317;50.360;8.726;2022-08-19T13:18:46;99095.81;;;28.28;41.08
27984;BME280;15317;50.360;8.726;2022-08-19T13:22:48;99095.78;;;28.34;41.05
27984;BME280;15317;50.360;8.726;2022-08-19T13:26:50;99095.53;;;28.30;41.02
27984;BME280;15317;50.360;8.726;2022-08-19T13:30:52;99107.53;;;28.31;40.85
27984;BME280;15317;50.360;8.726;2022-08-19T13:35:14;99096.13;;;28.07;41.32
27984;BME280;15317;50.360;8.726;2022-08-19T13:39:16;99107.59;;;27.85;41.90
27984;BME280;15317;50.360;8.726;2022-08-19T13:43:20;99109.03;;;27.57;42.52
27984;BME280;15317;50.360;8.726;2022-08-19T13:47:22;99105.13;;;27.53;42.40
27984;BME280;15317;50.360;8.726;2022-08-19T13:51:26;99110.69;;;27.38;42.02
27984;BME280;15317;50.360;8.726;2022-08-19T13:55:28;99114.28;;;27.23;42.62
27984;BME280;15317;50.360;8.726;2022-08-19T13:59:30;99117.38;;;27.32;42.95
27984;BME280;15317;50.360;8.726;2022-08-19T14:03:33;99120.72;;;27.34;42.32
27984;BME280;15317;50.360;8.726;2022-08-19T14:07:37;99121.81;;;27.07;43.19
27984;BME280;15317;50.360;8.726;2022-08-19T14:11:39;99129.88;;;26.99;43.30
27984;BME280;15317;50.360;8.726;2022-08-19T14:15:41;99127.34;;;26.97;43.83
27984;BME280;15317;50.360;8.726;2022-08-19T14:19:43;99130.09;;;26.87;43.31
27984;BME280;15317;50.360;8.726;2022-08-19T14:23:46;99144.28;;;26.81;44.11
27984;BME280;15317;50.360;8.726;2022-08-19T14:27:48;99152.66;;;26.86;43.93
27984;BME280;15317;50.360;8.726;2022-08-19T14:31:50;99140.13;;;26.88;43.60
27984;BME280;15317;50.360;8.726;2022-08-19T14:35:52;99142.09;;;26.88;42.96
27984;BME280;15317;50.360;8.726;2022-08-19T14:39:56;99148.47;;;26.83;43.62
27984;BME280;15317;50.360;8.726;2022-08-19T14:43:58;99144.56;;;26.84;43.33
27984;BME280;15317;50.360;8.726;2022-08-19T14:48:01;99138.97;;;26.74;43.47
27984;BME280;15317;50.360;8.726;2022-08-19T14:52:03;99117.22;;;26.71;43.62
27984;BME280;15317;50.360;8.726;2022-08-19T14:56:12;99101.34;;;26.71;43.60
27984;BME280;15317;50.360;8.726;2022-08-19T15:00:15;99098.03;;;26.74;43.44
27984;BME280;15317;50.360;8.726;2022-08-19T15:04:17;99084.72;;;26.92;43.62
27984;BME280;15317;50.360;8.726;2022-08-19T15:08:19;99076.09;;;27.34;43.44
27984;BME280;15317;50.360;8.726;2022-08-19T15:12:26;99082.22;;;27.86;42.41
27984;BME280;15317;50.360;8.726;2022-08-19T15:16:28;99082.69;;;28.19;40.80
27984;BME280;15317;50.360;8.726;2022-08-19T15:20:30;99087.13;;;28.35;41.10
27984;BME280;15317;50.360;8.726;2022-08-19T15:24:33;99082.56;;;28.54;40.21
27984;BME280;15317;50.360;8.726;2022-08-19T15:28:37;99074.66;;;28.66;38.89
27984;BME280;15317;50.360;8.726;2022-08-19T15:32:39;99075.13;;;28.89;38.98
27984;BME280;15317;50.360;8.726;2022-08-19T15:36:42;99083.31;;;29.14;38.19
27984;BME280;15317;50.360;8.726;2022-08-19T15:40:44;99067.81;;;28.98;37.37
27984;BME280;15317;50.360;8.726;2022-08-19T15:44:49;99062.53;;;28.91;38.00
27984;BME280;15317;50.360;8.726;2022-08-19T15:48:52;99062.34;;;28.78;38.50
27984;BME280;15317;50.360;8.726;2022-08-19T15:52:58;99068.47;;;28.80;39.71
27984;BME280;15317;50.360;8.726;2022-08-19T15:57:01;99073.41;;;28.98;38.06
27984;BME280;15317;50.360;8.726;2022-08-19T16:01:22;99066.53;;;29.14;37.90
27984;BME280;15317;50.360;8.726;2022-08-19T16:05:42;99065.53;;;29.05;37.68
27984;BME280;15317;50.360;8.726;2022-08-19T16:10:03;99072.13;;;28.75;38.00
27984;BME280;15317;50.360;8.726;2022-08-19T16:14:05;99079.59;;;28.31;38.84
27984;BME280;15317;50.360;8.726;2022-08-19T16:18:10;99072.91;;;28.32;39.36
27984;BME280;15317;50.360;8.726;2022-08-19T16:22:12;99069.03;;;28.07;39.62
27984;BME280;15317;50.360;8.726;2022-08-19T16:26:16;99062.59;;;28.12;39.86
27984;BME280;15317;50.360;8.726;2022-08-19T16:30:18;99085.75;;;28.27;38.74
27984;BME280;15317;50.360;8.726;2022-08-19T16:34:22;99073.78;;;28.17;39.39
27984;BME280;15317;50.360;8.726;2022-08-19T16:38:25;99087.75;;;28.17;39.64
27984;BME280;15317;50.360;8.726;2022-08-19T16:42:28;99084.66;;;28.08;39.77
27984;BME280;15317;50.360;8.726;2022-08-19T16:46:30;99091.66;;;28.11;39.68
27984;BME280;15317;50.360;8.726;2022-08-19T16:50:33;99095.59;;;27.95;39.39
27984;BME280;15317;50.360;8.726;2022-08-19T16:54:36;99104.22;;;27.98;39.35
27984;BME280;15317;50.360;8.726;2022-08-19T16:58:38;99099.47;;;27.99;39.90
27984;BME280;15317;50.360;8.726;2022-08-19T17:02:40;99106.22;;;27.82;40.18
27984;BME280;15317;50.360;8.726;2022-08-19T17:06:44;99117.38;;;27.72;40.48
27984;BME280;15317;50.360;8.726;2022-08-19T17:10:47;99109.00;;;27.47;40.54
27984;BME280;15317;50.360;8.726;2022-08-19T17:14:50;99110.69;;;27.58;41.22
27984;BME280;15317;50.360;8.726;2022-08-19T17:18:53;99115.69;;;27.51;41.04
27984;BME280;15317;50.360;8.726;2022-08-19T17:22:58;99118.78;;;27.49;41.37
27984;BME280;15317;50.360;8.726;2022-08-19T17:27:00;99120.16;;;27.32;40.72
27984;BME280;15317;50.360;8.726;2022-08-19T17:31:02;99120.72;;;27.39;41.44
27984;BME280;15317;50.360;8.726;2022-08-19T17:35:05;99129.94;;;27.29;41.90
27984;BME280;15317;50.360;8.726;2022-08-19T17:39:09;99130.19;;;27.33;41.93
27984;BME280;15317;50.360;8.726;2022-08-19T17:43:12;99122.69;;;27.28;42.53
27984;BME280;15317;50.360;8.726;2022-08-19T17:47:15;99123.50;;;27.13;42.18
27984;BME280;15317;50.360;8.726;2022-08-19T17:51:19;99113.69;;;26.96;42.75
27984;BME280;15317;50.360;8.726;2022-08-19T17:55:23;99122.34;;;27.04;43.01
27984;BME280;15317;50.360;8.726;2022-08-19T17:59:25;99142.13;;;27.03;43.22
27984;BME280;15317;50.360;8.726;2022-08-19T18:03:27;99142.34;;;26.86;44.39
27984;BME280;15317;50.360;8.726;2022-08-19T18:07:30;99141.81;;;26.89;42.12
27984;BME280;15317;50.360;8.726;2022-08-19T18:11:33;99149.56;;;26.77;41.89
27984;BME280;15317;50.360;8.726;2022-08-19T18:15:35;99151.75;;;26.65;42.07
27984;BME280;15317;50.360;8.726;2022-08-19T18:19:39;99153.09;;;26.47;42.63
27984;BME280;15317;50.360;8.726;2022-08-19T18:23:41;99148.63;;;26.46;42.76
27984;BME280;15317;50.360;8.726;2022-08-19T18:27:45;99152.19;;;26.37;42.87
27984;BME280;15317;50.360;8.726;2022-08-19T18:31:47;99150.22;;;26.37;42.98
27984;BME280;15317;50.360;8.726;2022-08-19T18:35:49;99150.38;;;26.20;42.58
27984;BME280;15317;50.360;8.726;2022-08-19T18:39:52;99159.78;;;26.09;43.11
27984;BME280;15317;50.360;8.726;2022-08-19T18:44:13;99171.72;;;26.00;43.57
27984;BME280;15317;50.360;8.726;2022-08-19T18:48:33;99170.50;;;25.85;43.75
27984;BME280;15317;50.360;8.726;2022-08-19T18:52:53;99180.91;;;25.68;44.05
27984;BME280;15317;50.360;8.726;2022-08-19T18:56:55;99174.97;;;25.60;44.45
27984;BME280;15317;50.360;8.726;2022-08-19T19:01:08;99176.50;;;25.45;44.84
27984;BME280;15317;50.360;8.726;2022-08-19T19:05:12;99180.84;;;25.31;45.30
27984;BME280;15317;50.360;8.726;2022-08-19T19:09:17;99197.34;;;25.16;45.70
27984;BME280;15317;50.360;8.726;2022-08-19T19:13:19;99191.63;;;25.01;46.17
27984;BME280;15317;50.360;8.726;2022-08-19T19:17:22;99211.53;;;24.93;46.26
27984;BME280;15317;50.360;8.726;2022-08-19T19:21:27;99214.06;;;24.77;47.17
27984;BME280;15317;50.360;8.726;2022-08-19T19:25:29;99221.19;;;24.68;47.42
27984;BME280;15317;50.360;8.726;2022-08-19T19:29:32;99220.03;;;24.64;47.25
27984;BME280;15317;50.360;8.726;2022-08-19T19:33:37;99224.81;;;24.47;47.92
27984;BME280;15317;50.360;8.726;2022-08-19T19:37:39;99238.28;;;24.38;48.15
27984;BME280;15317;50.360;8.726;2022-08-19T19:41:43;99240.56;;;24.25;48.71
27984;BME280;15317;50.360;8.726;2022-08-19T19:45:45;99240.13;;;24.16;49.31
27984;BME280;15317;50.360;8.726;2022-08-19T19:49:50;99242.50;;;24.08;49.42
27984;BME280;15317;50.360;8.726;2022-08-19T19:53:52;99246.03;;;23.86;50.28
27984;BME280;15317;50.360;8.726;2022-08-19T19:57:54;99256.44;;;23.79;50.47
27984;BME280;15317;50.360;8.726;2022-08-19T20:01:57;99256.88;;;23.71;50.63
27984;BME280;15317;50.360;8.726;2022-08-19T20:06:02;99258.63;;;23.60;51.42
27984;BME280;15317;50.360;8.726;2022-08-19T20:10:04;99265.66;;;23.51;51.40
27984;BME280;15317;50.360;8.726;2022-08-19T20:14:10;99286.75;;;23.41;51.93
27984;BME280;15317;50.360;8.726;2022-08-19T20:18:13;99273.41;;;23.38;51.93
27984;BME280;15317;50.360;8.726;2022-08-19T20:22:17;99282.88;;;23.25;52.45
27984;BME280;15317;50.360;8.726;2022-08-19T20:26:19;99297.25;;;23.10;53.13
27984;BME280;15317;50.360;8.726;2022-08-19T20:30:21;99293.69;;;22.98;53.68
27984;BME280;15317;50.360;8.726;2022-08-19T20:34:23;99290.78;;;22.93;53.65
27984;BME280;15317;50.360;8.726;2022-08-19T20:38:26;99288.75;;;22.89;53.38
27984;BME280;15317;50.360;8.726;2022-08-19T20:42:28;99294.78;;;22.86;54.01
27984;BME280;15317;50.360;8.726;2022-08-19T20:46:31;99286.84;;;22.77;54.10
27984;BME280;15317;50.360;8.726;2022-08-19T20:50:34;99291.88;;;22.69;54.67
27984;BME280;15317;50.360;8.726;2022-08-19T20:54:38;99297.78;;;22.61;54.54
27984;BME280;15317;50.360;8.726;2022-08-19T20:58:40;99295.50;;;22.46;54.91
27984;BME280;15317;50.360;8.726;2022-08-19T21:02:42;99298.75;;;22.31;55.99
27984;BME280;15317;50.360;8.726;2022-08-19T21:06:44;99289.75;;;22.24;56.15
27984;BME280;15317;50.360;8.726;2022-08-19T21:10:50;99292.38;;;22.08;56.71
27984;BME280;15317;50.360;8.726;2022-08-19T21:14:52;99303.19;;;21.97;56.97
27984;BME280;15317;50.360;8.726;2022-08-19T21:18:54;99305.28;;;21.84;57.45
27984;BME280;15317;50.360;8.726;2022-08-19T21:22:56;99303.97;;;21.75;58.39
27984;BME280;15317;50.360;8.726;2022-08-19T21:27:00;99303.97;;;21.75;57.98
27984;BME280;15317;50.360;8.726;2022-08-19T21:31:04;99299.59;;;21.67;58.30